sensor_id;sensor_type;location;lat;lon;timestamp;pressure;altitude;pressure_sealevel;temperature;humidity
75775;BME280;64505;51.458;7.556;2023-02-26T00:00:11;99754.34;;;-1.49;81.69
75775;BME280;64505;51.458;7.556;2023-02-26T00:02:15;99752.97;;;-1.53;81.80
75775;BME280;64505;51.458;7.556;2023-02-26T00:04:16;99753.41;;;-1.58;83.09
75775;BME280;64505;51.458;7.556;2023-02-26T00:06:18;99760.38;;;-1.58;82.23
75775;BME280;64505;51.458;7.556;2023-02-26T00:08:19;99768.16;;;-1.58;81.87
75775;BME280;64505;51.458;7.556;2023-02-26T00:10:21;99772.66;;;-1.60;82.14
75775;BME280;64505;51.458;7.556;2023-02-26T00:12:23;99767.31;;;-1.59;81.88
75775;BME280;64505;51.458;7.556;2023-02-26T00:14:24;99771.69;;;-1.59;82.04
75775;BME280;64505;51.458;7.556;2023-02-26T00:18:28;99775.69;;;-1.65;83.03
75775;BME280;64505;51.458;7.556;2023-02-26T00:20:30;99773.22;;;-1.66;82.10
75775;BME280;64505;51.458;7.556;2023-02-26T00:22:32;99778.41;;;-1.66;82.68
75775;BME280;64505;51.458;7.556;2023-02-26T00:24:33;99782.34;;;-1.62;82.89
75775;BME280;64505;51.458;7.556;2023-02-26T00:26:35;99783.75;;;-1.68;83.00
75775;BME280;64505;51.458;7.556;2023-02-26T00:28:37;99784.56;;;-1.67;82.52
75775;BME280;64505;51.458;7.556;2023-02-26T00:30:38;99791.94;;;-1.72;82.34
75775;BME280;64505;51.458;7.556;2023-02-26T00:32:40;99793.88;;;-1.74;82.35
75775;BME280;64505;51.458;7.556;2023-02-26T00:34:44;99796.75;;;-1.77;83.25
75775;BME280;64505;51.458;7.556;2023-02-26T00:41:44;99803.19;;;-1.81;82.99
75775;BME280;64505;51.458;7.556;2023-02-26T00:43:46;99809.03;;;-1.79;82.97
75775;BME280;64505;51.458;7.556;2023-02-26T00:48:23;99809.97;;;-1.80;83.47
75775;BME280;64505;51.458;7.556;2023-02-26T00:50:26;99808.38;;;-1.81;82.74
75775;BME280;64505;51.458;7.556;2023-02-26T00:52:36;99819.00;;;-1.84;83.54
75775;BME280;64505;51.458;7.556;2023-02-26T00:54:39;99812.19;;;-1.85;83.21
75775;BME280;64505;51.458;7.556;2023-02-26T00:56:40;99814.78;;;-1.85;83.10
75775;BME280;64505;51.458;7.556;2023-02-26T00:58:42;99813.00;;;-1.85;84.01
75775;BME280;64505;51.458;7.556;2023-02-26T01:00:43;99811.63;;;-1.79;83.12
75775;BME280;64505;51.458;7.556;2023-02-26T01:02:48;99816.22;;;-1.73;83.47
75775;BME280;64505;51.458;7.556;2023-02-26T01:04:49;99818.13;;;-1.66;82.20
75775;BME280;64505;51.458;7.556;2023-02-26T01:06:56;99824.13;;;-1.65;82.73
75775;BME280;64505;51.458;7.556;2023-02-26T01:09:06;99819.09;;;-1.67;82.54
75775;BME280;64505;51.458;7.556;2023-02-26T01:11:10;99824.53;;;-1.70;82.10
75775;BME280;64505;51.458;7.556;2023-02-26T01:13:12;99821.56;;;-1.75;83.17
75775;BME280;64505;51.458;7.556;2023-02-26T01:15:14;99829.47;;;-1.76;82.44
75775;BME280;64505;51.458;7.556;2023-02-26T01:19:40;99830.19;;;-1.84;83.09
75775;BME280;64505;51.458;7.556;2023-02-26T01:21:48;99839.06;;;-1.86;83.44
75775;BME280;64505;51.458;7.556;2023-02-26T01:23:51;99835.34;;;-1.84;82.67
75775;BME280;64505;51.458;7.556;2023-02-26T01:26:03;99831.94;;;-1.84;83.10
75775;BME280;64505;51.458;7.556;2023-02-26T01:28:07;99832.50;;;-1.90;83.56
75775;BME280;64505;51.458;7.556;2023-02-26T01:30:09;99843.41;;;-1.87;82.76
75775;BME280;64505;51.458;7.556;2023-02-26T01:32:17;99835.81;;;-1.88;82.73
75775;BME280;64505;51.458;7.556;2023-02-26T01:34:41;99854.59;;;-1.86;82.83
75775;BME280;64505;51.458;7.556;2023-02-26T01:36:52;99849.72;;;-1.89;82.79
75775;BME280;64505;51.458;7.556;2023-02-26T01:39:22;99847.69;;;-1.95;82.82
75775;BME280;64505;51.458;7.556;2023-02-26T01:43:50;99859.53;;;-2.03;83.54
75775;BME280;64505;51.458;7.556;2023-02-26T01:48:23;99857.22;;;-2.06;83.64
75775;BME280;64505;51.458;7.556;2023-02-26T01:50:32;99866.38;;;-2.11;83.83
75775;BME280;64505;51.458;7.556;2023-02-26T01:54:48;99870.63;;;-2.10;83.09
75775;BME280;64505;51.458;7.556;2023-02-26T01:56:58;99863.50;;;-2.08;83.06
75775;BME280;64505;51.458;7.556;2023-02-26T01:59:03;99862.97;;;-2.12;82.94
75775;BME280;64505;51.458;7.556;2023-02-26T02:01:06;99865.69;;;-2.13;83.05
75775;BME280;64505;51.458;7.556;2023-02-26T02:03:33;99872.91;;;-2.17;82.90
75775;BME280;64505;51.458;7.556;2023-02-26T02:05:55;99864.47;;;-2.19;82.83
75775;BME280;64505;51.458;7.556;2023-02-26T02:07:59;99876.06;;;-2.23;83.42
75775;BME280;64505;51.458;7.556;2023-02-26T02:10:00;99879.47;;;-2.22;83.69
75775;BME280;64505;51.458;7.556;2023-02-26T02:16:53;99875.38;;;-2.25;83.59
75775;BME280;64505;51.458;7.556;2023-02-26T02:19:13;99879.47;;;-2.22;83.19
75775;BME280;64505;51.458;7.556;2023-02-26T02:32:56;99887.38;;;-2.33;83.39
75775;BME280;64505;51.458;7.556;2023-02-26T02:35:21;99891.19;;;-2.37;83.58
75775;BME280;64505;51.458;7.556;2023-02-26T02:37:33;99895.16;;;-2.33;82.54
75775;BME280;64505;51.458;7.556;2023-02-26T02:39:43;99897.72;;;-2.24;83.02
75775;BME280;64505;51.458;7.556;2023-02-26T02:42:07;99897.59;;;-2.13;82.42
75775;BME280;64505;51.458;7.556;2023-02-26T02:44:14;99900.44;;;-2.06;81.55
75775;BME280;64505;51.458;7.556;2023-02-26T02:46:21;99896.63;;;-2.12;81.73
75775;BME280;64505;51.458;7.556;2023-02-26T02:48:30;99899.09;;;-2.10;81.77
75775;BME280;64505;51.458;7.556;2023-02-26T02:50:45;99902.09;;;-2.05;81.41
75775;BME280;64505;51.458;7.556;2023-02-26T02:52:59;99898.38;;;-2.03;81.11
75775;BME280;64505;51.458;7.556;2023-02-26T02:55:05;99906.03;;;-2.01;81.75
75775;BME280;64505;51.458;7.556;2023-02-26T02:57:12;99918.06;;;-2.00;81.90
75775;BME280;64505;51.458;7.556;2023-02-26T02:59:23;99917.22;;;-2.01;81.64
75775;BME280;64505;51.458;7.556;2023-02-26T03:01:26;99917.34;;;-2.02;81.66
75775;BME280;64505;51.458;7.556;2023-02-26T03:03:41;99915.59;;;-2.02;81.36
75775;BME280;64505;51.458;7.556;2023-02-26T03:05:43;99926.22;;;-2.05;80.71
75775;BME280;64505;51.458;7.556;2023-02-26T03:07:55;99925.81;;;-2.10;81.03
75775;BME280;64505;51.458;7.556;2023-02-26T03:09:58;99922.00;;;-2.15;81.15
75775;BME280;64505;51.458;7.556;2023-02-26T03:11:59;99920.34;;;-2.16;80.66
75775;BME280;64505;51.458;7.556;2023-02-26T03:14:02;99929.22;;;-2.19;80.99
75775;BME280;64505;51.458;7.556;2023-02-26T03:18:46;99931.94;;;-2.20;81.24
75775;BME280;64505;51.458;7.556;2023-02-26T03:21:03;99930.59;;;-2.24;81.33
75775;BME280;64505;51.458;7.556;2023-02-26T03:23:20;99940.00;;;-2.23;80.91
75775;BME280;64505;51.458;7.556;2023-02-26T03:30:19;99941.91;;;-2.16;81.43
75775;BME280;64505;51.458;7.556;2023-02-26T03:32:28;99950.75;;;-2.09;81.53
75775;BME280;64505;51.458;7.556;2023-02-26T03:34:36;99952.41;;;-2.08;81.49
75775;BME280;64505;51.458;7.556;2023-02-26T03:36:44;99949.41;;;-2.03;80.77
75775;BME280;64505;51.458;7.556;2023-02-26T03:39:17;99957.19;;;-2.03;80.32
75775;BME280;64505;51.458;7.556;2023-02-26T03:41:31;99960.31;;;-2.00;80.60
75775;BME280;64505;51.458;7.556;2023-02-26T03:43:56;99967.94;;;-1.98;80.70
75775;BME280;64505;51.458;7.556;2023-02-26T03:46:04;99967.66;;;-1.95;80.48
75775;BME280;64505;51.458;7.556;2023-02-26T03:48:08;99978.84;;;-1.94;80.56
75775;BME280;64505;51.458;7.556;2023-02-26T03:50:16;99976.00;;;-1.91;80.86
75775;BME280;64505;51.458;7.556;2023-02-26T03:52:22;99976.69;;;-1.89;80.26
75775;BME280;64505;51.458;7.556;2023-02-26T03:54:29;99980.94;;;-1.88;79.94
75775;BME280;64505;51.458;7.556;2023-02-26T03:56:49;99978.56;;;-1.91;80.50
75775;BME280;64505;51.458;7.556;2023-02-26T03:58:51;99980.22;;;-1.90;80.46
75775;BME280;64505;51.458;7.556;2023-02-26T04:00:58;99987.72;;;-1.97;80.82
75775;BME280;64505;51.458;7.556;2023-02-26T04:03:08;99987.97;;;-2.10;80.49
75775;BME280;64505;51.458;7.556;2023-02-26T04:05:15;99991.66;;;-2.12;80.78
75775;BME280;64505;51.458;7.556;2023-02-26T04:07:19;99996.03;;;-2.13;80.73
75775;BME280;64505;51.458;7.556;2023-02-26T04:09:21;100002.84;;;-2.12;80.95
75775;BME280;64505;51.458;7.556;2023-02-26T04:11:23;99998.78;;;-2.14;80.80
75775;BME280;64505;51.458;7.556;2023-02-26T04:13:26;99996.31;;;-2.16;80.73
75775;BME280;64505;51.458;7.556;2023-02-26T04:15:28;100011.84;;;-2.16;81.16
75775;BME280;64505;51.458;7.556;2023-02-26T04:17:29;100010.47;;;-2.20;80.71
75775;BME280;64505;51.458;7.556;2023-02-26T04:19:31;100005.16;;;-2.18;80.99
75775;BME280;64505;51.458;7.556;2023-02-26T04:21:32;100016.63;;;-2.21;80.56
75775;BME280;64505;51.458;7.556;2023-02-26T04:23:34;100018.66;;;-2.24;81.43
75775;BME280;64505;51.458;7.556;2023-02-26T04:25:35;100017.41;;;-2.20;80.67
75775;BME280;64505;51.458;7.556;2023-02-26T04:27:37;100017.19;;;-2.17;81.66
75775;BME280;64505;51.458;7.556;2023-02-26T04:29:38;100013.59;;;-2.16;80.68
75775;BME280;64505;51.458;7.556;2023-02-26T04:31:40;100020.44;;;-2.15;80.74
75775;BME280;64505;51.458;7.556;2023-02-26T04:33:42;100028.31;;;-2.17;80.75
75775;BME280;64505;51.458;7.556;2023-02-26T04:35:43;100027.66;;;-2.19;80.99
75775;BME280;64505;51.458;7.556;2023-02-26T04:37:45;100035.25;;;-2.27;80.92
75775;BME280;64505;51.458;7.556;2023-02-26T04:39:46;100034.72;;;-2.30;80.88
75775;BME280;64505;51.458;7.556;2023-02-26T04:41:48;100041.94;;;-2.34;81.12
75775;BME280;64505;51.458;7.556;2023-02-26T04:43:49;100042.19;;;-2.37;81.06
75775;BME280;64505;51.458;7.556;2023-02-26T04:45:50;100046.28;;;-2.44;81.47
75775;BME280;64505;51.458;7.556;2023-02-26T04:47:52;100040.41;;;-2.46;81.90
75775;BME280;64505;51.458;7.556;2023-02-26T04:49:53;100047.38;;;-2.46;81.69
75775;BME280;64505;51.458;7.556;2023-02-26T04:51:55;100044.78;;;-2.46;81.50
75775;BME280;64505;51.458;7.556;2023-02-26T04:53:56;100049.78;;;-2.55;82.27
75775;BME280;64505;51.458;7.556;2023-02-26T04:55:58;100057.53;;;-2.55;82.15
75775;BME280;64505;51.458;7.556;2023-02-26T04:57:59;100062.72;;;-2.55;81.64
75775;BME280;64505;51.458;7.556;2023-02-26T05:00:01;100062.53;;;-2.63;82.12
75775;BME280;64505;51.458;7.556;2023-02-26T05:02:02;100060.34;;;-2.67;82.51
75775;BME280;64505;51.458;7.556;2023-02-26T05:04:03;100063.47;;;-2.64;82.17
75775;BME280;64505;51.458;7.556;2023-02-26T05:06:06;100071.41;;;-2.65;81.79
75775;BME280;64505;51.458;7.556;2023-02-26T05:08:08;100072.72;;;-2.71;81.83
75775;BME280;64505;51.458;7.556;2023-02-26T05:10:10;100067.81;;;-2.74;82.11
75775;BME280;64505;51.458;7.556;2023-02-26T05:12:11;100073.91;;;-2.75;82.45
75775;BME280;64505;51.458;7.556;2023-02-26T05:14:13;100076.78;;;-2.78;82.37
75775;BME280;64505;51.458;7.556;2023-02-26T05:16:15;100068.91;;;-2.76;81.81
75775;BME280;64505;51.458;7.556;2023-02-26T05:18:16;100075.28;;;-2.80;82.31
75775;BME280;64505;51.458;7.556;2023-02-26T05:20:18;100083.03;;;-2.80;82.69
75775;BME280;64505;51.458;7.556;2023-02-26T05:22:19;100088.22;;;-2.80;82.46
75775;BME280;64505;51.458;7.556;2023-02-26T05:24:21;100083.97;;;-2.81;82.99
75775;BME280;64505;51.458;7.556;2023-02-26T05:26:23;100084.94;;;-2.82;82.24
75775;BME280;64505;51.458;7.556;2023-02-26T05:28:26;100089.94;;;-2.90;82.48
75775;BME280;64505;51.458;7.556;2023-02-26T05:30:27;100095.94;;;-2.90;82.83
75775;BME280;64505;51.458;7.556;2023-02-26T05:32:29;100092.63;;;-2.92;82.96
75775;BME280;64505;51.458;7.556;2023-02-26T05:34:30;100099.56;;;-2.92;82.84
75775;BME280;64505;51.458;7.556;2023-02-26T05:36:32;100098.06;;;-2.95;83.27
75775;BME280;64505;51.458;7.556;2023-02-26T05:38:34;100099.56;;;-2.92;82.99
75775;BME280;64505;51.458;7.556;2023-02-26T05:40:35;100110.06;;;-2.94;83.31
75775;BME280;64505;51.458;7.556;2023-02-26T05:42:38;100104.44;;;-2.99;82.85
75775;BME280;64505;51.458;7.556;2023-02-26T05:44:39;100107.84;;;-2.99;83.39
75775;BME280;64505;51.458;7.556;2023-02-26T05:46:40;100113.28;;;-3.02;83.31
75775;BME280;64505;51.458;7.556;2023-02-26T05:48:42;100109.19;;;-3.04;83.14
75775;BME280;64505;51.458;7.556;2023-02-26T05:50:47;100115.41;;;-3.07;83.48
75775;BME280;64505;51.458;7.556;2023-02-26T05:52:49;100118.56;;;-3.03;83.67
75775;BME280;64505;51.458;7.556;2023-02-26T05:54:50;100119.53;;;-3.04;83.38
75775;BME280;64505;51.458;7.556;2023-02-26T05:56:51;100123.56;;;-3.11;83.65
75775;BME280;64505;51.458;7.556;2023-02-26T05:58:53;100125.19;;;-3.10;83.56
75775;BME280;64505;51.458;7.556;2023-02-26T06:00:57;100126.72;;;-3.08;83.00
75775;BME280;64505;51.458;7.556;2023-02-26T06:02:58;100133.09;;;-3.12;83.28
75775;BME280;64505;51.458;7.556;2023-02-26T06:05:00;100140.97;;;-3.13;83.35
75775;BME280;64505;51.458;7.556;2023-02-26T06:07:01;100142.47;;;-3.11;83.54
75775;BME280;64505;51.458;7.556;2023-02-26T06:09:03;100147.66;;;-3.11;83.86
75775;BME280;64505;51.458;7.556;2023-02-26T06:11:05;100146.03;;;-3.12;83.59
75775;BME280;64505;51.458;7.556;2023-02-26T06:13:06;100147.06;;;-3.14;83.51
75775;BME280;64505;51.458;7.556;2023-02-26T06:15:08;100151.56;;;-3.16;83.32
75775;BME280;64505;51.458;7.556;2023-02-26T06:17:10;100160.16;;;-3.16;83.36
75775;BME280;64505;51.458;7.556;2023-02-26T06:19:12;100158.59;;;-3.18;83.51
75775;BME280;64505;51.458;7.556;2023-02-26T06:21:13;100167.09;;;-3.16;83.42
75775;BME280;64505;51.458;7.556;2023-02-26T06:23:15;100168.94;;;-3.18;83.76
75775;BME280;64505;51.458;7.556;2023-02-26T06:25:16;100174.13;;;-3.18;83.87
75775;BME280;64505;51.458;7.556;2023-02-26T06:27:18;100174.00;;;-3.17;83.79
75775;BME280;64505;51.458;7.556;2023-02-26T06:29:19;100182.84;;;-3.19;83.80
75775;BME280;64505;51.458;7.556;2023-02-26T06:31:21;100188.03;;;-3.19;84.12
75775;BME280;64505;51.458;7.556;2023-02-26T06:33:22;100191.28;;;-3.17;83.59
75775;BME280;64505;51.458;7.556;2023-02-26T06:35:24;100199.06;;;-3.17;84.21
75775;BME280;64505;51.458;7.556;2023-02-26T06:37:26;100195.06;;;-3.21;83.15
75775;BME280;64505;51.458;7.556;2023-02-26T06:39:27;100192.38;;;-3.20;83.72
75775;BME280;64505;51.458;7.556;2023-02-26T06:41:29;100198.22;;;-3.18;83.70
75775;BME280;64505;51.458;7.556;2023-02-26T06:43:30;100206.69;;;-3.16;82.91
75775;BME280;64505;51.458;7.556;2023-02-26T06:45:32;100208.22;;;-3.13;83.82
75775;BME280;64505;51.458;7.556;2023-02-26T06:47:33;100204.44;;;-3.09;83.86
75775;BME280;64505;51.458;7.556;2023-02-26T06:49:35;100210.06;;;-3.04;83.14
75775;BME280;64505;51.458;7.556;2023-02-26T06:51:36;100211.78;;;-2.93;83.38
75775;BME280;64505;51.458;7.556;2023-02-26T06:53:38;100225.16;;;-2.88;83.19
75775;BME280;64505;51.458;7.556;2023-02-26T06:55:46;100227.75;;;-2.88;83.03
75775;BME280;64505;51.458;7.556;2023-02-26T06:57:49;100235.97;;;-2.83;82.94
75775;BME280;64505;51.458;7.556;2023-02-26T06:59:51;100235.16;;;-2.84;82.37
75775;BME280;64505;51.458;7.556;2023-02-26T07:01:52;100243.22;;;-2.77;82.92
75775;BME280;64505;51.458;7.556;2023-02-26T07:03:54;100247.47;;;-2.76;82.04
75775;BME280;64505;51.458;7.556;2023-02-26T07:05:55;100246.94;;;-2.70;82.52
75775;BME280;64505;51.458;7.556;2023-02-26T07:07:59;100254.09;;;-2.63;81.57
75775;BME280;64505;51.458;7.556;2023-02-26T07:10:00;100259.16;;;-2.61;81.85
75775;BME280;64505;51.458;7.556;2023-02-26T07:12:02;100258.53;;;-2.54;81.93
75775;BME280;64505;51.458;7.556;2023-02-26T07:14:04;100266.06;;;-2.51;81.48
75775;BME280;64505;51.458;7.556;2023-02-26T07:16:06;100268.28;;;-2.46;81.79
75775;BME280;64505;51.458;7.556;2023-02-26T07:18:07;100257.78;;;-2.44;82.17
75775;BME280;64505;51.458;7.556;2023-02-26T07:20:09;100264.59;;;-2.43;81.94
75775;BME280;64505;51.458;7.556;2023-02-26T07:22:12;100269.41;;;-2.39;81.84
75775;BME280;64505;51.458;7.556;2023-02-26T07:24:15;100276.09;;;-2.36;81.10
75775;BME280;64505;51.458;7.556;2023-02-26T07:26:16;100276.97;;;-2.26;81.27
75775;BME280;64505;51.458;7.556;2023-02-26T07:28:18;100271.78;;;-2.26;81.29
75775;BME280;64505;51.458;7.556;2023-02-26T07:30:20;100280.84;;;-2.21;81.46
75775;BME280;64505;51.458;7.556;2023-02-26T07:32:22;100280.69;;;-2.19;81.64
75775;BME280;64505;51.458;7.556;2023-02-26T07:34:23;100284.94;;;-2.18;80.83
75775;BME280;64505;51.458;7.556;2023-02-26T07:36:25;100287.78;;;-2.21;80.67
75775;BME280;64505;51.458;7.556;2023-02-26T07:38:27;100282.44;;;-2.20;80.36
75775;BME280;64505;51.458;7.556;2023-02-26T07:40:29;100286.47;;;-2.06;81.31
75775;BME280;64505;51.458;7.556;2023-02-26T07:42:30;100291.66;;;-2.06;81.11
75775;BME280;64505;51.458;7.556;2023-02-26T07:44:32;100296.47;;;-2.02;80.11
75775;BME280;64505;51.458;7.556;2023-02-26T07:46:33;100305.53;;;-1.96;79.61
75775;BME280;64505;51.458;7.556;2023-02-26T07:48:35;100305.81;;;-1.89;79.97
75775;BME280;64505;51.458;7.556;2023-02-26T07:50:37;100307.59;;;-1.90;80.12
75775;BME280;64505;51.458;7.556;2023-02-26T07:52:39;100309.63;;;-1.93;80.33
75775;BME280;64505;51.458;7.556;2023-02-26T07:54:40;100313.44;;;-1.88;80.40
75775;BME280;64505;51.458;7.556;2023-02-26T07:56:42;100316.75;;;-1.86;79.82
75775;BME280;64505;51.458;7.556;2023-02-26T07:58:45;100315.41;;;-1.80;80.20
75775;BME280;64505;51.458;7.556;2023-02-26T08:00:46;100326.47;;;-1.78;79.51
75775;BME280;64505;51.458;7.556;2023-02-26T08:02:48;100314.91;;;-1.74;79.81
75775;BME280;64505;51.458;7.556;2023-02-26T08:04:50;100323.09;;;-1.69;79.70
75775;BME280;64505;51.458;7.556;2023-02-26T08:06:52;100317.50;;;-1.74;78.80
75775;BME280;64505;51.458;7.556;2023-02-26T08:08:57;100321.97;;;-1.76;79.52
75775;BME280;64505;51.458;7.556;2023-02-26T08:11:00;100320.94;;;-1.64;80.10
75775;BME280;64505;51.458;7.556;2023-02-26T08:13:01;100322.03;;;-1.67;79.00
75775;BME280;64505;51.458;7.556;2023-02-26T08:15:04;100320.31;;;-1.57;78.97
75775;BME280;64505;51.458;7.556;2023-02-26T08:17:07;100324.56;;;-1.56;78.28
75775;BME280;64505;51.458;7.556;2023-02-26T08:19:08;100323.88;;;-1.48;78.40
75775;BME280;64505;51.458;7.556;2023-02-26T08:21:10;100336.44;;;-1.43;79.24
75775;BME280;64505;51.458;7.556;2023-02-26T08:23:12;100335.13;;;-1.38;78.65
75775;BME280;64505;51.458;7.556;2023-02-26T08:25:13;100338.50;;;-1.37;77.67
75775;BME280;64505;51.458;7.556;2023-02-26T08:27:15;100350.28;;;-1.33;77.52
75775;BME280;64505;51.458;7.556;2023-02-26T08:29:16;100348.66;;;-1.34;77.95
75775;BME280;64505;51.458;7.556;2023-02-26T08:31:18;100339.78;;;-1.32;77.22
75775;BME280;64505;51.458;7.556;2023-02-26T08:33:21;100350.19;;;-1.22;77.64
75775;BME280;64505;51.458;7.556;2023-02-26T08:35:26;100359.06;;;-1.15;77.17
75775;BME280;64505;51.458;7.556;2023-02-26T08:37:27;100357.59;;;-1.08;77.83
75775;BME280;64505;51.458;7.556;2023-02-26T08:39:28;100363.88;;;-1.11;76.34
75775;BME280;64505;51.458;7.556;2023-02-26T08:41:33;100367.03;;;-1.07;75.96
75775;BME280;64505;51.458;7.556;2023-02-26T08:43:36;100370.88;;;-1.02;76.62
75775;BME280;64505;51.458;7.556;2023-02-26T08:45:38;100369.25;;;-0.93;76.65
75775;BME280;64505;51.458;7.556;2023-02-26T08:47:39;100380.63;;;-0.84;76.78
75775;BME280;64505;51.458;7.556;2023-02-26T08:49:57;100378.69;;;-0.82;76.15
75775;BME280;64505;51.458;7.556;2023-02-26T08:51:59;100377.09;;;-0.83;75.65
75775;BME280;64505;51.458;7.556;2023-02-26T08:54:00;100381.19;;;-0.81;75.35
75775;BME280;64505;51.458;7.556;2023-02-26T08:56:02;100382.00;;;-0.71;75.63
75775;BME280;64505;51.458;7.556;2023-02-26T08:58:04;100392.25;;;-0.79;75.04
75775;BME280;64505;51.458;7.556;2023-02-26T09:00:06;100390.34;;;-0.67;75.08
75775;BME280;64505;51.458;7.556;2023-02-26T09:02:11;100396.53;;;-0.59;75.24
75775;BME280;64505;51.458;7.556;2023-02-26T09:04:13;100407.19;;;-0.62;74.09
75775;BME280;64505;51.458;7.556;2023-02-26T09:06:14;100400.06;;;-0.50;74.06
75775;BME280;64505;51.458;7.556;2023-02-26T09:08:16;100395.47;;;-0.37;74.54
75775;BME280;64505;51.458;7.556;2023-02-26T09:10:17;100404.63;;;-0.33;74.58
75775;BME280;64505;51.458;7.556;2023-02-26T09:12:19;100406.41;;;-0.33;73.97
75775;BME280;64505;51.458;7.556;2023-02-26T09:14:20;100408.44;;;-0.27;74.06
75775;BME280;64505;51.458;7.556;2023-02-26T09:16:22;100408.03;;;-0.23;73.33
75775;BME280;64505;51.458;7.556;2023-02-26T09:18:24;100414.91;;;-0.22;73.26
75775;BME280;64505;51.458;7.556;2023-02-26T09:20:26;100420.06;;;-0.03;73.96
75775;BME280;64505;51.458;7.556;2023-02-26T09:22:28;100421.31;;;0.03;73.20
75775;BME280;64505;51.458;7.556;2023-02-26T09:24:29;100425.69;;;0.12;73.65
75775;BME280;64505;51.458;7.556;2023-02-26T09:26:31;100429.09;;;0.13;72.86
75775;BME280;64505;51.458;7.556;2023-02-26T09:28:32;100432.81;;;0.10;72.46
75775;BME280;64505;51.458;7.556;2023-02-26T09:30:34;100429.25;;;0.21;73.46
75775;BME280;64505;51.458;7.556;2023-02-26T09:32:35;100435.50;;;0.37;72.41
75775;BME280;64505;51.458;7.556;2023-02-26T09:34:38;100428.06;;;0.52;72.41
75775;BME280;64505;51.458;7.556;2023-02-26T09:36:40;100440.00;;;0.45;71.49
75775;BME280;64505;51.458;7.556;2023-02-26T09:38:44;100433.94;;;0.64;71.23
75775;BME280;64505;51.458;7.556;2023-02-26T09:43:04;100436.91;;;0.78;71.17
75775;BME280;64505;51.458;7.556;2023-02-26T09:45:13;100428.94;;;0.89;70.83
75775;BME280;64505;51.458;7.556;2023-02-26T09:47:23;100431.06;;;1.04;71.17
75775;BME280;64505;51.458;7.556;2023-02-26T09:51:53;100435.69;;;1.10;70.38
75775;BME280;64505;51.458;7.556;2023-02-26T09:53:56;100443.91;;;1.05;69.26
75775;BME280;64505;51.458;7.556;2023-02-26T09:56:04;100447.84;;;1.19;69.85
75775;BME280;64505;51.458;7.556;2023-02-26T09:58:15;100455.63;;;1.28;70.10
75775;BME280;64505;51.458;7.556;2023-02-26T10:00:39;100451.13;;;1.21;69.23
75775;BME280;64505;51.458;7.556;2023-02-26T10:03:02;100451.84;;;1.40;68.81
75775;BME280;64505;51.458;7.556;2023-02-26T10:05:23;100454.00;;;1.45;68.42
75775;BME280;64505;51.458;7.556;2023-02-26T10:11:52;100462.34;;;1.76;67.47
75775;BME280;64505;51.458;7.556;2023-02-26T10:14:02;100463.16;;;1.76;67.02
75775;BME280;64505;51.458;7.556;2023-02-26T10:16:13;100461.72;;;1.82;66.11
75775;BME280;64505;51.458;7.556;2023-02-26T10:18:29;100477.00;;;1.59;65.97
75775;BME280;64505;51.458;7.556;2023-02-26T10:20:51;100477.13;;;1.58;66.73
75775;BME280;64505;51.458;7.556;2023-02-26T10:23:14;100473.50;;;1.86;66.64
75775;BME280;64505;51.458;7.556;2023-02-26T10:25:23;100471.00;;;1.94;66.28
75775;BME280;64505;51.458;7.556;2023-02-26T10:27:39;100472.47;;;2.14;67.20
75775;BME280;64505;51.458;7.556;2023-02-26T10:30:14;100479.63;;;2.30;66.76
75775;BME280;64505;51.458;7.556;2023-02-26T10:34:34;100471.88;;;2.20;66.92
75775;BME280;64505;51.458;7.556;2023-02-26T10:36:39;100480.00;;;1.99;65.15
75775;BME280;64505;51.458;7.556;2023-02-26T10:38:48;100479.03;;;2.01;66.14
75775;BME280;64505;51.458;7.556;2023-02-26T10:41:01;100482.47;;;2.01;65.60
75775;BME280;64505;51.458;7.556;2023-02-26T10:45:36;100480.25;;;2.06;63.79
75775;BME280;64505;51.458;7.556;2023-02-26T10:50:07;100488.19;;;1.87;64.78
75775;BME280;64505;51.458;7.556;2023-02-26T10:52:17;100485.47;;;2.06;65.54
75775;BME280;64505;51.458;7.556;2023-02-26T10:54:35;100482.25;;;1.94;64.07
75775;BME280;64505;51.458;7.556;2023-02-26T10:56:37;100480.69;;;2.19;65.11
75775;BME280;64505;51.458;7.556;2023-02-26T10:58:38;100480.28;;;2.32;64.06
75775;BME280;64505;51.458;7.556;2023-02-26T11:00:51;100490.28;;;2.01;61.19
75775;BME280;64505;51.458;7.556;2023-02-26T11:02:55;100485.72;;;2.03;61.43
75775;BME280;64505;51.458;7.556;2023-02-26T11:04:57;100486.41;;;1.87;61.14
75775;BME280;64505;51.458;7.556;2023-02-26T11:07:08;100503.03;;;2.22;62.31
75775;BME280;64505;51.458;7.556;2023-02-26T11:09:27;100501.97;;;2.32;61.85
75775;BME280;64505;51.458;7.556;2023-02-26T11:11:42;100498.34;;;2.08;60.03
75775;BME280;64505;51.458;7.556;2023-02-26T11:13:46;100498.44;;;1.71;59.82
75775;BME280;64505;51.458;7.556;2023-02-26T11:15:50;100507.25;;;1.70;59.94
75775;BME280;64505;51.458;7.556;2023-02-26T11:17:53;100514.63;;;1.74;61.20
75775;BME280;64505;51.458;7.556;2023-02-26T11:20:00;100501.47;;;1.93;60.70
75775;BME280;64505;51.458;7.556;2023-02-26T11:22:03;100498.03;;;1.93;59.37
75775;BME280;64505;51.458;7.556;2023-02-26T11:26:25;100510.41;;;2.44;59.94
75775;BME280;64505;51.458;7.556;2023-02-26T11:28:35;100500.84;;;2.53;60.26
75775;BME280;64505;51.458;7.556;2023-02-26T11:30:37;100502.00;;;2.76;60.25
75775;BME280;64505;51.458;7.556;2023-02-26T11:32:39;100511.53;;;2.85;60.42
75775;BME280;64505;51.458;7.556;2023-02-26T11:34:46;100514.41;;;3.33;59.45
75775;BME280;64505;51.458;7.556;2023-02-26T11:36:49;100512.03;;;3.48;59.13
75775;BME280;64505;51.458;7.556;2023-02-26T11:39:00;100514.53;;;3.66;58.72
75775;BME280;64505;51.458;7.556;2023-02-26T11:41:04;100509.50;;;3.80;58.51
75775;BME280;64505;51.458;7.556;2023-02-26T11:43:17;100511.69;;;3.93;57.39
75775;BME280;64505;51.458;7.556;2023-02-26T11:45:21;100517.13;;;4.32;59.35
75775;BME280;64505;51.458;7.556;2023-02-26T11:47:26;100513.03;;;4.45;57.84
75775;BME280;64505;51.458;7.556;2023-02-26T11:49:28;100516.63;;;4.28;55.99
75775;BME280;64505;51.458;7.556;2023-02-26T11:51:30;100507.31;;;4.26;55.12
75775;BME280;64505;51.458;7.556;2023-02-26T11:53:34;100510.38;;;3.97;56.04
75775;BME280;64505;51.458;7.556;2023-02-26T11:55:37;100502.41;;;3.57;56.05
75775;BME280;64505;51.458;7.556;2023-02-26T11:57:45;100501.56;;;3.48;56.03